sensor_id;sensor_type;location;lat;lon;timestamp;P1;durP1;ratioP1;P2;durP2;ratioP2
28766;SDS011;15921;52.034;20.650;2023-08-31T00:02:12;6.63;;;5.20;;
28766;SDS011;15921;52.034;20.650;2023-08-31T00:04:38;7.65;;;5.95;;
28766;SDS011;15921;52.034;20.650;2023-08-31T00:07:04;8.80;;;5.20;;
28766;SDS011;15921;52.034;20.650;2023-08-31T00:09:30;10.10;;;5.80;;
28766;SDS011;15921;52.034;20.650;2023-08-31T00:11:55;9.57;;;5.93;;
28766;SDS011;15921;52.034;20.650;2023-08-31T00:14:22;7.50;;;5.35;;
28766;SDS011;15921;52.034;20.650;2023-08-31T00:16:48;11.10;;;4.88;;
28766;SDS011;15921;52.034;20.650;2023-08-31T00:19:15;9.77;;;5.80;;
28766;SDS011;15921;52.034;20.650;2023-08-31T00:21:41;6.72;;;5.25;;
28766;SDS011;15921;52.034;20.650;2023-08-31T00:24:07;8.23;;;5.72;;
28766;SDS011;15921;52.034;20.650;2023-08-31T00:26:34;11.15;;;6.25;;
28766;SDS011;15921;52.034;20.650;2023-08-31T00:29:05;6.90;;;5.25;;
28766;SDS011;15921;52.034;20.650;2023-08-31T00:31:30;8.80;;;5.25;;
28766;SDS011;15921;52.034;20.650;2023-08-31T00:33:56;11.18;;;6.25;;
28766;SDS011;15921;52.034;20.650;2023-08-31T00:36:21;8.07;;;5.80;;
28766;SDS011;15921;52.034;20.650;2023-08-31T00:38:48;9.52;;;6.90;;
28766;SDS011;15921;52.034;20.650;2023-08-31T00:41:14;9.45;;;6.05;;
28766;SDS011;15921;52.034;20.650;2023-08-31T00:43:39;9.23;;;5.10;;
28766;SDS011;15921;52.034;20.650;2023-08-31T00:46:05;8.93;;;6.20;;
28766;SDS011;15921;52.034;20.650;2023-08-31T00:48:31;8.07;;;5.70;;
28766;SDS011;15921;52.034;20.650;2023-08-31T00:50:57;6.80;;;5.47;;
28766;SDS011;15921;52.034;20.650;2023-08-31T00:53:23;9.35;;;5.28;;
28766;SDS011;15921;52.034;20.650;2023-08-31T00:55:49;9.50;;;6.32;;
28766;SDS011;15921;52.034;20.650;2023-08-31T00:58:14;10.25;;;6.95;;
28766;SDS011;15921;52.034;20.650;2023-08-31T01:03:27;11.35;;;5.97;;
28766;SDS011;15921;52.034;20.650;2023-08-31T01:09:28;9.30;;;5.75;;
28766;SDS011;15921;52.034;20.650;2023-08-31T01:11:56;10.05;;;6.65;;
28766;SDS011;15921;52.034;20.650;2023-08-31T01:14:24;9.35;;;6.75;;
28766;SDS011;15921;52.034;20.650;2023-08-31T01:16:56;10.27;;;6.63;;
28766;SDS011;15921;52.034;20.650;2023-08-31T01:19:30;10.85;;;6.95;;
28766;SDS011;15921;52.034;20.650;2023-08-31T01:22:02;12.38;;;6.45;;
28766;SDS011;15921;52.034;20.650;2023-08-31T01:24:31;13.90;;;6.72;;
28766;SDS011;15921;52.034;20.650;2023-08-31T01:26:57;8.25;;;5.90;;
28766;SDS011;15921;52.034;20.650;2023-08-31T01:29:23;10.07;;;7.20;;
28766;SDS011;15921;52.034;20.650;2023-08-31T01:31:49;9.88;;;6.00;;
28766;SDS011;15921;52.034;20.650;2023-08-31T01:34:33;10.57;;;5.78;;
28766;SDS011;15921;52.034;20.650;2023-08-31T01:37:03;7.50;;;5.70;;
28766;SDS011;15921;52.034;20.650;2023-08-31T01:39:41;9.68;;;6.38;;
28766;SDS011;15921;52.034;20.650;2023-08-31T01:42:21;10.00;;;5.72;;
28766;SDS011;15921;52.034;20.650;2023-08-31T01:44:48;6.00;;;5.03;;
28766;SDS011;15921;52.034;20.650;2023-08-31T01:47:16;8.68;;;6.07;;
28766;SDS011;15921;52.034;20.650;2023-08-31T01:49:44;7.30;;;5.95;;
28766;SDS011;15921;52.034;20.650;2023-08-31T01:52:10;8.75;;;5.63;;
28766;SDS011;15921;52.034;20.650;2023-08-31T01:54:35;9.05;;;6.15;;
28766;SDS011;15921;52.034;20.650;2023-08-31T01:57:02;7.72;;;6.05;;
28766;SDS011;15921;52.034;20.650;2023-08-31T01:59:28;9.38;;;6.00;;
28766;SDS011;15921;52.034;20.650;2023-08-31T02:01:54;11.02;;;6.38;;
28766;SDS011;15921;52.034;20.650;2023-08-31T02:04:20;9.30;;;6.20;;
28766;SDS011;15921;52.034;20.650;2023-08-31T02:06:45;9.68;;;6.47;;
28766;SDS011;15921;52.034;20.650;2023-08-31T02:09:11;8.63;;;5.78;;
28766;SDS011;15921;52.034;20.650;2023-08-31T02:11:38;12.77;;;5.13;;
28766;SDS011;15921;52.034;20.650;2023-08-31T02:14:04;6.75;;;4.80;;
28766;SDS011;15921;52.034;20.650;2023-08-31T02:16:30;7.05;;;4.50;;
28766;SDS011;15921;52.034;20.650;2023-08-31T02:18:56;7.32;;;4.40;;
28766;SDS011;15921;52.034;20.650;2023-08-31T02:21:22;5.63;;;4.00;;
28766;SDS011;15921;52.034;20.650;2023-08-31T02:23:48;7.10;;;4.38;;
28766;SDS011;15921;52.034;20.650;2023-08-31T02:26:14;7.88;;;4.72;;
28766;SDS011;15921;52.034;20.650;2023-08-31T02:28:39;7.28;;;4.35;;
28766;SDS011;15921;52.034;20.650;2023-08-31T02:31:05;7.22;;;4.65;;
28766;SDS011;15921;52.034;20.650;2023-08-31T02:33:31;6.63;;;4.40;;
28766;SDS011;15921;52.034;20.650;2023-08-31T02:35:57;7.15;;;3.45;;
28766;SDS011;15921;52.034;20.650;2023-08-31T02:38:22;7.85;;;4.20;;
28766;SDS011;15921;52.034;20.650;2023-08-31T02:40:48;4.40;;;3.42;;
28766;SDS011;15921;52.034;20.650;2023-08-31T02:43:15;7.47;;;3.53;;
28766;SDS011;15921;52.034;20.650;2023-08-31T02:45:40;5.32;;;3.95;;
28766;SDS011;15921;52.034;20.650;2023-08-31T02:48:06;7.30;;;3.60;;
28766;SDS011;15921;52.034;20.650;2023-08-31T02:50:36;6.60;;;4.43;;
28766;SDS011;15921;52.034;20.650;2023-08-31T02:53:02;5.63;;;4.07;;
28766;SDS011;15921;52.034;20.650;2023-08-31T02:55:27;5.78;;;3.70;;
28766;SDS011;15921;52.034;20.650;2023-08-31T02:57:53;5.75;;;4.00;;
28766;SDS011;15921;52.034;20.650;2023-08-31T03:00:19;6.70;;;3.97;;
28766;SDS011;15921;52.034;20.650;2023-08-31T03:02:48;7.40;;;3.85;;
28766;SDS011;15921;52.034;20.650;2023-08-31T03:05:17;7.40;;;3.92;;
28766;SDS011;15921;52.034;20.650;2023-08-31T03:07:43;7.65;;;3.13;;
28766;SDS011;15921;52.034;20.650;2023-08-31T03:10:08;6.30;;;3.90;;
28766;SDS011;15921;52.034;20.650;2023-08-31T03:12:35;4.45;;;3.10;;
28766;SDS011;15921;52.034;20.650;2023-08-31T03:15:01;6.22;;;3.33;;
28766;SDS011;15921;52.034;20.650;2023-08-31T03:17:27;6.70;;;2.90;;
28766;SDS011;15921;52.034;20.650;2023-08-31T03:19:53;4.90;;;3.08;;
28766;SDS011;15921;52.034;20.650;2023-08-31T03:22:18;4.82;;;3.00;;
28766;SDS011;15921;52.034;20.650;2023-08-31T03:24:44;3.97;;;3.05;;
28766;SDS011;15921;52.034;20.650;2023-08-31T03:27:10;5.07;;;3.15;;
28766;SDS011;15921;52.034;20.650;2023-08-31T03:29:35;10.02;;;3.08;;
28766;SDS011;15921;52.034;20.650;2023-08-31T03:32:01;3.88;;;3.08;;
28766;SDS011;15921;52.034;20.650;2023-08-31T03:34:30;4.53;;;3.33;;
28766;SDS011;15921;52.034;20.650;2023-08-31T03:36:56;4.68;;;2.85;;
28766;SDS011;15921;52.034;20.650;2023-08-31T03:39:23;6.20;;;2.78;;
28766;SDS011;15921;52.034;20.650;2023-08-31T03:41:49;5.93;;;3.75;;
28766;SDS011;15921;52.034;20.650;2023-08-31T03:44:15;4.53;;;3.08;;
28766;SDS011;15921;52.034;20.650;2023-08-31T03:46:40;4.50;;;3.60;;
28766;SDS011;15921;52.034;20.650;2023-08-31T03:49:06;6.78;;;3.83;;
28766;SDS011;15921;52.034;20.650;2023-08-31T03:51:32;8.98;;;3.47;;
28766;SDS011;15921;52.034;20.650;2023-08-31T03:53:57;8.13;;;4.03;;
28766;SDS011;15921;52.034;20.650;2023-08-31T03:56:23;4.13;;;3.38;;
28766;SDS011;15921;52.034;20.650;2023-08-31T03:58:48;6.18;;;3.85;;
28766;SDS011;15921;52.034;20.650;2023-08-31T04:01:14;5.53;;;3.55;;
28766;SDS011;15921;52.034;20.650;2023-08-31T04:03:42;5.88;;;3.60;;
28766;SDS011;15921;52.034;20.650;2023-08-31T04:06:07;7.22;;;3.60;;
28766;SDS011;15921;52.034;20.650;2023-08-31T04:08:33;10.90;;;4.35;;
28766;SDS011;15921;52.034;20.650;2023-08-31T04:10:59;5.90;;;4.75;;
28766;SDS011;15921;52.034;20.650;2023-08-31T04:13:25;11.77;;;4.45;;
28766;SDS011;15921;52.034;20.650;2023-08-31T04:15:51;9.23;;;4.38;;
28766;SDS011;15921;52.034;20.650;2023-08-31T04:18:18;8.93;;;4.78;;
28766;SDS011;15921;52.034;20.650;2023-08-31T04:20:50;8.25;;;4.43;;
28766;SDS011;15921;52.034;20.650;2023-08-31T04:23:17;6.90;;;4.90;;
28766;SDS011;15921;52.034;20.650;2023-08-31T04:25:43;8.80;;;5.32;;
28766;SDS011;15921;52.034;20.650;2023-08-31T04:28:09;11.93;;;5.45;;
28766;SDS011;15921;52.034;20.650;2023-08-31T04:30:34;7.25;;;5.50;;
28766;SDS011;15921;52.034;20.650;2023-08-31T04:33:00;6.82;;;4.97;;
28766;SDS011;15921;52.034;20.650;2023-08-31T04:35:26;9.02;;;4.95;;
28766;SDS011;15921;52.034;20.650;2023-08-31T04:37:52;6.78;;;5.32;;
28766;SDS011;15921;52.034;20.650;2023-08-31T04:40:17;8.27;;;5.78;;
28766;SDS011;15921;52.034;20.650;2023-08-31T04:42:43;8.30;;;5.53;;
28766;SDS011;15921;52.034;20.650;2023-08-31T04:45:09;13.25;;;6.15;;
28766;SDS011;15921;52.034;20.650;2023-08-31T04:47:37;8.25;;;5.88;;
28766;SDS011;15921;52.034;20.650;2023-08-31T04:50:02;6.97;;;5.47;;
28766;SDS011;15921;52.034;20.650;2023-08-31T04:52:31;10.55;;;6.05;;
28766;SDS011;15921;52.034;20.650;2023-08-31T04:54:57;8.18;;;5.72;;
28766;SDS011;15921;52.034;20.650;2023-08-31T04:57:23;12.77;;;7.15;;
28766;SDS011;15921;52.034;20.650;2023-08-31T04:59:49;9.32;;;6.47;;
28766;SDS011;15921;52.034;20.650;2023-08-31T05:02:15;13.20;;;6.20;;
28766;SDS011;15921;52.034;20.650;2023-08-31T05:04:40;13.30;;;6.53;;
28766;SDS011;15921;52.034;20.650;2023-08-31T05:07:06;9.85;;;5.35;;
28766;SDS011;15921;52.034;20.650;2023-08-31T05:09:32;11.73;;;6.32;;
28766;SDS011;15921;52.034;20.650;2023-08-31T05:12:00;9.73;;;5.80;;
28766;SDS011;15921;52.034;20.650;2023-08-31T05:14:28;10.30;;;6.32;;
28766;SDS011;15921;52.034;20.650;2023-08-31T05:16:54;11.45;;;5.82;;
28766;SDS011;15921;52.034;20.650;2023-08-31T05:19:19;10.10;;;6.70;;
28766;SDS011;15921;52.034;20.650;2023-08-31T05:21:45;8.80;;;6.00;;
28766;SDS011;15921;52.034;20.650;2023-08-31T05:24:11;9.90;;;5.97;;
28766;SDS011;15921;52.034;20.650;2023-08-31T05:26:37;9.55;;;6.78;;
28766;SDS011;15921;52.034;20.650;2023-08-31T05:29:03;7.75;;;5.90;;
28766;SDS011;15921;52.034;20.650;2023-08-31T05:31:30;9.77;;;5.97;;
28766;SDS011;15921;52.034;20.650;2023-08-31T05:33:56;11.40;;;6.30;;
28766;SDS011;15921;52.034;20.650;2023-08-31T05:36:22;14.63;;;6.25;;
28766;SDS011;15921;52.034;20.650;2023-08-31T05:38:47;9.88;;;5.80;;
28766;SDS011;15921;52.034;20.650;2023-08-31T05:41:13;9.43;;;6.65;;
28766;SDS011;15921;52.034;20.650;2023-08-31T05:43:39;11.15;;;6.65;;
28766;SDS011;15921;52.034;20.650;2023-08-31T05:46:08;11.02;;;6.68;;
28766;SDS011;15921;52.034;20.650;2023-08-31T05:48:34;13.20;;;5.85;;
28766;SDS011;15921;52.034;20.650;2023-08-31T05:51:01;10.40;;;6.57;;
28766;SDS011;15921;52.034;20.650;2023-08-31T05:53:28;12.27;;;7.00;;
28766;SDS011;15921;52.034;20.650;2023-08-31T05:55:58;10.60;;;6.20;;
28766;SDS011;15921;52.034;20.650;2023-08-31T05:58:32;9.23;;;7.10;;
28766;SDS011;15921;52.034;20.650;2023-08-31T06:00:59;10.25;;;6.28;;
28766;SDS011;15921;52.034;20.650;2023-08-31T06:03:25;12.20;;;6.93;;
28766;SDS011;15921;52.034;20.650;2023-08-31T06:05:51;11.63;;;6.63;;
28766;SDS011;15921;52.034;20.650;2023-08-31T06:08:17;9.60;;;6.63;;
28766;SDS011;15921;52.034;20.650;2023-08-31T06:10:42;8.43;;;6.28;;
28766;SDS011;15921;52.034;20.650;2023-08-31T06:13:08;7.90;;;5.95;;
28766;SDS011;15921;52.034;20.650;2023-08-31T06:15:34;10.32;;;6.30;;
28766;SDS011;15921;52.034;20.650;2023-08-31T06:17:59;12.35;;;6.50;;
28766;SDS011;15921;52.034;20.650;2023-08-31T06:20:25;12.80;;;7.15;;
28766;SDS011;15921;52.034;20.650;2023-08-31T06:22:51;7.25;;;5.65;;
28766;SDS011;15921;52.034;20.650;2023-08-31T06:25:16;10.85;;;5.95;;
28766;SDS011;15921;52.034;20.650;2023-08-31T06:27:43;9.50;;;5.75;;
28766;SDS011;15921;52.034;20.650;2023-08-31T06:30:09;7.75;;;5.20;;
28766;SDS011;15921;52.034;20.650;2023-08-31T06:32:42;8.27;;;6.18;;
28766;SDS011;15921;52.034;20.650;2023-08-31T06:35:12;8.05;;;5.65;;
28766;SDS011;15921;52.034;20.650;2023-08-31T06:37:38;7.40;;;4.45;;
28766;SDS011;15921;52.034;20.650;2023-08-31T06:40:08;7.10;;;5.35;;
28766;SDS011;15921;52.034;20.650;2023-08-31T06:42:35;10.25;;;4.75;;
28766;SDS011;15921;52.034;20.650;2023-08-31T06:45:05;6.43;;;4.32;;
28766;SDS011;15921;52.034;20.650;2023-08-31T06:47:32;7.93;;;4.03;;
28766;SDS011;15921;52.034;20.650;2023-08-31T06:49:58;5.53;;;3.60;;
28766;SDS011;15921;52.034;20.650;2023-08-31T06:52:25;5.68;;;2.85;;
28766;SDS011;15921;52.034;20.650;2023-08-31T06:54:51;5.93;;;3.55;;
28766;SDS011;15921;52.034;20.650;2023-08-31T06:57:20;5.30;;;3.28;;
28766;SDS011;15921;52.034;20.650;2023-08-31T06:59:47;6.13;;;2.78;;
28766;SDS011;15921;52.034;20.650;2023-08-31T07:02:13;5.95;;;2.83;;
28766;SDS011;15921;52.034;20.650;2023-08-31T07:04:39;3.63;;;2.92;;
28766;SDS011;15921;52.034;20.650;2023-08-31T07:07:05;4.93;;;2.92;;
28766;SDS011;15921;52.034;20.650;2023-08-31T07:09:33;4.53;;;2.80;;
28766;SDS011;15921;52.034;20.650;2023-08-31T07:11:59;5.47;;;2.75;;
28766;SDS011;15921;52.034;20.650;2023-08-31T07:14:26;3.63;;;2.90;;
28766;SDS011;15921;52.034;20.650;2023-08-31T07:16:52;5.43;;;2.95;;
28766;SDS011;15921;52.034;20.650;2023-08-31T07:19:18;5.15;;;2.30;;
28766;SDS011;15921;52.034;20.650;2023-08-31T07:21:44;3.95;;;2.10;;
28766;SDS011;15921;52.034;20.650;2023-08-31T07:24:10;3.97;;;2.28;;
28766;SDS011;15921;52.034;20.650;2023-08-31T07:26:36;7.22;;;2.50;;
28766;SDS011;15921;52.034;20.650;2023-08-31T07:29:02;4.32;;;2.50;;
28766;SDS011;15921;52.034;20.650;2023-08-31T07:31:29;3.47;;;2.00;;
28766;SDS011;15921;52.034;20.650;2023-08-31T07:33:56;6.20;;;2.17;;
28766;SDS011;15921;52.034;20.650;2023-08-31T07:36:22;4.72;;;2.20;;
28766;SDS011;15921;52.034;20.650;2023-08-31T07:38:47;3.13;;;1.80;;
28766;SDS011;15921;52.034;20.650;2023-08-31T07:41:13;4.55;;;1.80;;
28766;SDS011;15921;52.034;20.650;2023-08-31T07:43:39;3.42;;;2.00;;
28766;SDS011;15921;52.034;20.650;2023-08-31T07:46:04;3.35;;;1.90;;
28766;SDS011;15921;52.034;20.650;2023-08-31T07:48:30;3.92;;;2.25;;
28766;SDS011;15921;52.034;20.650;2023-08-31T07:50:56;4.13;;;1.73;;
28766;SDS011;15921;52.034;20.650;2023-08-31T07:53:21;2.40;;;2.00;;
28766;SDS011;15921;52.034;20.650;2023-08-31T07:55:54;2.58;;;1.85;;
28766;SDS011;15921;52.034;20.650;2023-08-31T07:58:20;3.70;;;1.90;;
28766;SDS011;15921;52.034;20.650;2023-08-31T08:00:46;2.67;;;1.70;;
28766;SDS011;15921;52.034;20.650;2023-08-31T08:03:12;3.45;;;1.90;;
28766;SDS011;15921;52.034;20.650;2023-08-31T08:05:39;3.35;;;1.60;;
28766;SDS011;15921;52.034;20.650;2023-08-31T08:08:05;3.80;;;1.88;;
28766;SDS011;15921;52.034;20.650;2023-08-31T08:10:31;4.65;;;1.38;;
28766;SDS011;15921;52.034;20.650;2023-08-31T08:12:57;2.30;;;1.77;;
28766;SDS011;15921;52.034;20.650;2023-08-31T08:15:23;2.22;;;1.77;;
28766;SDS011;15921;52.034;20.650;2023-08-31T08:17:49;2.17;;;1.38;;
28766;SDS011;15921;52.034;20.650;2023-08-31T08:20:15;3.15;;;1.83;;
28766;SDS011;15921;52.034;20.650;2023-08-31T08:22:41;4.10;;;1.42;;
28766;SDS011;15921;52.034;20.650;2023-08-31T08:25:06;5.05;;;1.98;;
28766;SDS011;15921;52.034;20.650;2023-08-31T08:27:32;4.47;;;1.80;;
28766;SDS011;15921;52.034;20.650;2023-08-31T08:29:59;2.53;;;1.70;;
28766;SDS011;15921;52.034;20.650;2023-08-31T08:32:24;5.25;;;1.70;;
28766;SDS011;15921;52.034;20.650;2023-08-31T08:34:50;2.83;;;1.40;;
28766;SDS011;15921;52.034;20.650;2023-08-31T08:37:16;4.45;;;1.52;;
28766;SDS011;15921;52.034;20.650;2023-08-31T08:39:42;3.22;;;1.38;;
28766;SDS011;15921;52.034;20.650;2023-08-31T08:42:08;2.85;;;1.85;;
28766;SDS011;15921;52.034;20.650;2023-08-31T08:44:36;4.57;;;1.88;;
28766;SDS011;15921;52.034;20.650;2023-08-31T08:47:02;2.15;;;1.70;;
28766;SDS011;15921;52.034;20.650;2023-08-31T08:49:30;2.25;;;1.75;;
28766;SDS011;15921;52.034;20.650;2023-08-31T08:51:57;3.50;;;1.83;;
28766;SDS011;15921;52.034;20.650;2023-08-31T08:54:24;3.20;;;1.73;;
28766;SDS011;15921;52.034;20.650;2023-08-31T08:56:50;4.43;;;1.75;;
28766;SDS011;15921;52.034;20.650;2023-08-31T08:59:16;3.13;;;1.75;;
28766;SDS011;15921;52.034;20.650;2023-08-31T09:01:41;7.82;;;2.28;;
28766;SDS011;15921;52.034;20.650;2023-08-31T09:04:08;5.25;;;2.05;;
28766;SDS011;15921;52.034;20.650;2023-08-31T09:06:35;5.03;;;2.65;;
28766;SDS011;15921;52.034;20.650;2023-08-31T09:09:00;6.85;;;2.75;;
28766;SDS011;15921;52.034;20.650;2023-08-31T09:11:26;3.13;;;2.40;;
28766;SDS011;15921;52.034;20.650;2023-08-31T09:13:52;3.85;;;2.40;;
28766;SDS011;15921;52.034;20.650;2023-08-31T09:16:30;6.60;;;2.83;;
28766;SDS011;15921;52.034;20.650;2023-08-31T09:18:56;3.72;;;2.35;;
28766;SDS011;15921;52.034;20.650;2023-08-31T09:21:34;6.20;;;2.50;;
28766;SDS011;15921;52.034;20.650;2023-08-31T09:24:00;4.57;;;2.90;;
28766;SDS011;15921;52.034;20.650;2023-08-31T09:26:27;3.05;;;2.70;;
28766;SDS011;15921;52.034;20.650;2023-08-31T09:28:53;6.60;;;3.03;;
28766;SDS011;15921;52.034;20.650;2023-08-31T09:31:18;4.22;;;2.95;;
28766;SDS011;15921;52.034;20.650;2023-08-31T09:33:50;4.03;;;3.00;;
28766;SDS011;15921;52.034;20.650;2023-08-31T09:36:17;4.03;;;2.95;;
28766;SDS011;15921;52.034;20.650;2023-08-31T09:38:43;3.75;;;2.50;;
28766;SDS011;15921;52.034;20.650;2023-08-31T09:41:09;5.35;;;2.67;;
28766;SDS011;15921;52.034;20.650;2023-08-31T09:43:35;3.28;;;2.28;;
28766;SDS011;15921;52.034;20.650;2023-08-31T09:46:01;3.08;;;2.58;;
28766;SDS011;15921;52.034;20.650;2023-08-31T09:48:29;4.95;;;2.97;;
28766;SDS011;15921;52.034;20.650;2023-08-31T09:50:56;5.40;;;2.50;;
28766;SDS011;15921;52.034;20.650;2023-08-31T09:53:23;6.38;;;3.15;;
28766;SDS011;15921;52.034;20.650;2023-08-31T09:55:50;5.85;;;2.63;;
28766;SDS011;15921;52.034;20.650;2023-08-31T09:58:17;3.90;;;2.83;;
28766;SDS011;15921;52.034;20.650;2023-08-31T10:00:45;3.15;;;2.25;;
28766;SDS011;15921;52.034;20.650;2023-08-31T10:03:13;5.65;;;2.50;;
28766;SDS011;15921;52.034;20.650;2023-08-31T10:05:40;5.78;;;2.47;;
28766;SDS011;15921;52.034;20.650;2023-08-31T10:08:10;4.00;;;2.50;;
28766;SDS011;15921;52.034;20.650;2023-08-31T10:10:36;2.80;;;2.35;;
28766;SDS011;15921;52.034;20.650;2023-08-31T10:13:04;4.25;;;2.20;;
28766;SDS011;15921;52.034;20.650;2023-08-31T10:15:34;7.53;;;2.70;;
28766;SDS011;15921;52.034;20.650;2023-08-31T10:18:01;6.90;;;2.40;;
28766;SDS011;15921;52.034;20.650;2023-08-31T10:20:28;4.95;;;2.60;;
28766;SDS011;15921;52.034;20.650;2023-08-31T10:23:06;4.32;;;2.33;;
28766;SDS011;15921;52.034;20.650;2023-08-31T10:28:19;4.75;;;2.67;;
28766;SDS011;15921;52.034;20.650;2023-08-31T10:33:31;3.53;;;2.30;;
28766;SDS011;15921;52.034;20.650;2023-08-31T10:35:59;4.20;;;2.60;;
28766;SDS011;15921;52.034;20.650;2023-08-31T10:38:31;5.40;;;2.60;;
28766;SDS011;15921;52.034;20.650;2023-08-31T10:44:18;2.40;;;2.10;;
28766;SDS011;15921;52.034;20.650;2023-08-31T10:46:34;5.38;;;2.20;;
28766;SDS011;15921;52.034;20.650;2023-08-31T10:51:35;2.00;;;1.70;;
28766;SDS011;15921;52.034;20.650;2023-08-31T10:54:05;5.22;;;2.47;;
28766;SDS011;15921;52.034;20.650;2023-08-31T10:56:42;2.97;;;2.42;;
28766;SDS011;15921;52.034;20.650;2023-08-31T10:59:20;4.13;;;2.60;;
28766;SDS011;15921;52.034;20.650;2023-08-31T11:01:51;3.50;;;2.58;;
28766;SDS011;15921;52.034;20.650;2023-08-31T11:04:29;4.18;;;2.00;;
28766;SDS011;15921;52.034;20.650;2023-08-31T11:07:11;6.40;;;2.47;;
28766;SDS011;15921;52.034;20.650;2023-08-31T11:09:40;3.10;;;2.10;;
28766;SDS011;15921;52.034;20.650;2023-08-31T11:12:07;4.25;;;2.60;;
28766;SDS011;15921;52.034;20.650;2023-08-31T11:14:33;3.22;;;2.47;;
28766;SDS011;15921;52.034;20.650;2023-08-31T11:16:59;5.55;;;2.50;;
28766;SDS011;15921;52.034;20.650;2023-08-31T11:19:26;6.20;;;2.40;;
28766;SDS011;15921;52.034;20.650;2023-08-31T11:21:53;6.75;;;2.30;;
28766;SDS011;15921;52.034;20.650;2023-08-31T11:24:19;4.30;;;2.67;;
28766;SDS011;15921;52.034;20.650;2023-08-31T11:26:55;4.13;;;2.50;;
28766;SDS011;15921;52.034;20.650;2023-08-31T11:29:21;3.90;;;2.50;;
28766;SDS011;15921;52.034;20.650;2023-08-31T11:31:47;3.28;;;2.30;;
28766;SDS011;15921;52.034;20.650;2023-08-31T11:34:16;2.55;;;2.13;;
28766;SDS011;15921;52.034;20.650;2023-08-31T11:36:42;3.63;;;2.58;;
28766;SDS011;15921;52.034;20.650;2023-08-31T11:39:10;3.33;;;2.40;;
28766;SDS011;15921;52.034;20.650;2023-08-31T11:41:36;6.07;;;2.40;;
28766;SDS011;15921;52.034;20.650;2023-08-31T11:44:05;2.97;;;2.33;;
28766;SDS011;15921;52.034;20.650;2023-08-31T11:46:32;3.97;;;2.33;;
28766;SDS011;15921;52.034;20.650;2023-08-31T11:49:01;4.63;;;2.72;;
28766;SDS011;15921;52.034;20.650;2023-08-31T11:51:29;4.45;;;2.80;;
28766;SDS011;15921;52.034;20.650;2023-08-31T11:53:56;5.57;;;2.90;;
28766;SDS011;15921;52.034;20.650;2023-08-31T11:56:23;5.75;;;2.63;;
28766;SDS011;15921;52.034;20.650;2023-08-31T11:58:52;3.60;;;2.40;;
28766;SDS011;15921;52.034;20.650;2023-08-31T12:01:19;4.40;;;2.55;;
28766;SDS011;15921;52.034;20.650;2023-08-31T12:03:46;3.00;;;2.38;;
28766;SDS011;15921;52.034;20.650;2023-08-31T12:06:15;4.40;;;2.55;;
28766;SDS011;15921;52.034;20.650;2023-08-31T12:08:43;3.15;;;2.33;;
28766;SDS011;15921;52.034;20.650;2023-08-31T12:11:09;4.50;;;2.67;;
28766;SDS011;15921;52.034;20.650;2023-08-31T12:13:34;3.45;;;2.58;;
28766;SDS011;15921;52.034;20.650;2023-08-31T12:16:00;3.20;;;2.38;;
28766;SDS011;15921;52.034;20.650;2023-08-31T12:18:32;4.07;;;2.63;;
28766;SDS011;15921;52.034;20.650;2023-08-31T12:21:02;3.13;;;2.42;;
28766;SDS011;15921;52.034;20.650;2023-08-31T12:23:29;4.75;;;2.03;;
28766;SDS011;15921;52.034;20.650;2023-08-31T12:25:55;3.10;;;2.17;;
28766;SDS011;15921;52.034;20.650;2023-08-31T12:28:21;7.10;;;2.28;;
28766;SDS011;15921;52.034;20.650;2023-08-31T12:30:48;2.95;;;2.20;;
28766;SDS011;15921;52.034;20.650;2023-08-31T12:33:16;3.40;;;2.05;;
28766;SDS011;15921;52.034;20.650;2023-08-31T12:35:42;3.63;;;2.28;;
28766;SDS011;15921;52.034;20.650;2023-08-31T12:38:08;2.80;;;2.05;;
28766;SDS011;15921;52.034;20.650;2023-08-31T12:40:34;6.28;;;2.00;;
28766;SDS011;15921;52.034;20.650;2023-08-31T12:43:00;2.67;;;1.85;;
28766;SDS011;15921;52.034;20.650;2023-08-31T12:45:26;2.85;;;2.28;;
28766;SDS011;15921;52.034;20.650;2023-08-31T12:47:51;3.65;;;1.77;;
28766;SDS011;15921;52.034;20.650;2023-08-31T12:50:17;2.13;;;1.80;;
28766;SDS011;15921;52.034;20.650;2023-08-31T12:52:43;5.47;;;2.40;;
28766;SDS011;15921;52.034;20.650;2023-08-31T12:55:12;3.15;;;2.30;;
28766;SDS011;15921;52.034;20.650;2023-08-31T12:57:40;3.13;;;1.90;;
28766;SDS011;15921;52.034;20.650;2023-08-31T13:00:08;1.80;;;1.55;;
28766;SDS011;15921;52.034;20.650;2023-08-31T13:02:39;3.53;;;1.80;;
28766;SDS011;15921;52.034;20.650;2023-08-31T13:05:05;4.70;;;2.15;;
28766;SDS011;15921;52.034;20.650;2023-08-31T13:07:34;2.88;;;1.52;;
28766;SDS011;15921;52.034;20.650;2023-08-31T13:10:00;3.78;;;2.03;;
28766;SDS011;15921;52.034;20.650;2023-08-31T13:12:29;1.83;;;1.60;;
28766;SDS011;15921;52.034;20.650;2023-08-31T13:14:58;5.90;;;1.80;;
28766;SDS011;15921;52.034;20.650;2023-08-31T13:17:24;4.18;;;2.13;;
28766;SDS011;15921;52.034;20.650;2023-08-31T13:19:55;3.42;;;1.67;;
28766;SDS011;15921;52.034;20.650;2023-08-31T13:22:22;4.32;;;2.05;;
28766;SDS011;15921;52.034;20.650;2023-08-31T13:24:49;2.30;;;1.90;;
28766;SDS011;15921;52.034;20.650;2023-08-31T13:27:15;4.00;;;2.03;;
28766;SDS011;15921;52.034;20.650;2023-08-31T13:29:42;3.65;;;2.13;;
28766;SDS011;15921;52.034;20.650;2023-08-31T13:32:08;3.53;;;2.35;;
28766;SDS011;15921;52.034;20.650;2023-08-31T13:34:34;4.05;;;2.15;;
28766;SDS011;15921;52.034;20.650;2023-08-31T13:37:00;6.10;;;2.30;;
28766;SDS011;15921;52.034;20.650;2023-08-31T13:39:26;11.15;;;2.25;;
28766;SDS011;15921;52.034;20.650;2023-08-31T13:41:52;4.03;;;2.55;;
28766;SDS011;15921;52.034;20.650;2023-08-31T13:44:19;3.42;;;2.35;;
28766;SDS011;15921;52.034;20.650;2023-08-31T13:46:48;4.35;;;2.63;;
28766;SDS011;15921;52.034;20.650;2023-08-31T13:49:14;4.97;;;2.42;;
28766;SDS011;15921;52.034;20.650;2023-08-31T13:51:40;4.35;;;2.45;;
28766;SDS011;15921;52.034;20.650;2023-08-31T13:54:06;3.35;;;2.47;;
28766;SDS011;15921;52.034;20.650;2023-08-31T13:56:32;9.88;;;2.50;;
28766;SDS011;15921;52.034;20.650;2023-08-31T13:58:59;5.55;;;2.50;;
28766;SDS011;15921;52.034;20.650;2023-08-31T14:01:25;4.13;;;2.70;;
28766;SDS011;15921;52.034;20.650;2023-08-31T14:03:50;4.22;;;3.13;;
28766;SDS011;15921;52.034;20.650;2023-08-31T14:06:16;4.43;;;3.03;;
28766;SDS011;15921;52.034;20.650;2023-08-31T14:08:42;6.72;;;4.18;;
28766;SDS011;15921;52.034;20.650;2023-08-31T14:11:08;14.65;;;5.50;;
28766;SDS011;15921;52.034;20.650;2023-08-31T14:13:33;11.45;;;7.30;;
28766;SDS011;15921;52.034;20.650;2023-08-31T14:15:59;11.55;;;7.57;;
28766;SDS011;15921;52.034;20.650;2023-08-31T14:18:28;13.00;;;7.72;;
28766;SDS011;15921;52.034;20.650;2023-08-31T14:20:55;10.75;;;8.20;;
28766;SDS011;15921;52.034;20.650;2023-08-31T14:23:23;16.15;;;8.93;;
28766;SDS011;15921;52.034;20.650;2023-08-31T14:25:48;12.45;;;8.50;;
28766;SDS011;15921;52.034;20.650;2023-08-31T14:28:14;12.57;;;8.57;;
28766;SDS011;15921;52.034;20.650;2023-08-31T14:30:40;11.43;;;9.00;;
28766;SDS011;15921;52.034;20.650;2023-08-31T14:33:05;13.32;;;9.90;;
28766;SDS011;15921;52.034;20.650;2023-08-31T14:35:31;13.40;;;9.10;;
28766;SDS011;15921;52.034;20.650;2023-08-31T14:37:57;10.73;;;7.30;;
28766;SDS011;15921;52.034;20.650;2023-08-31T14:40:23;11.38;;;8.02;;
28766;SDS011;15921;52.034;20.650;2023-08-31T14:42:49;11.35;;;8.77;;
28766;SDS011;15921;52.034;20.650;2023-08-31T14:45:15;8.55;;;7.13;;
28766;SDS011;15921;52.034;20.650;2023-08-31T14:47:40;8.18;;;6.40;;
28766;SDS011;15921;52.034;20.650;2023-08-31T14:50:07;8.82;;;5.78;;